createdAt,value
2023-02-17T00:01:44.670Z,52.40
2023-02-17T00:04:14.932Z,56.03
2023-02-17T00:06:43.810Z,56.15
2023-02-17T00:09:12.602Z,49.30
2023-02-17T00:11:41.442Z,47.95
2023-02-17T00:14:13.185Z,49.58
2023-02-17T00:16:42.497Z,50.67
2023-02-17T00:19:25.242Z,48.22
2023-02-17T00:21:57.710Z,49.05
2023-02-17T00:24:28.121Z,47.92
2023-02-17T00:26:57.270Z,45.10
2023-02-17T00:29:26.102Z,56.92
2023-02-17T00:31:55.487Z,54.60
2023-02-17T00:34:25.391Z,42.63
2023-02-17T00:36:55.724Z,44.50
2023-02-17T00:39:24.561Z,41.15
2023-02-17T00:41:53.601Z,42.53
2023-02-17T00:44:24.814Z,47.33
2023-02-17T00:46:56.681Z,53.10
2023-02-17T00:49:27.588Z,44.90
2023-02-17T00:52:01.133Z,42.95
2023-02-17T00:54:30.324Z,39.67
2023-02-17T00:56:59.101Z,44.40
2023-02-17T00:59:27.867Z,43.75
2023-02-17T01:01:56.914Z,42.05
2023-02-17T01:04:25.829Z,41.92
2023-02-17T01:06:54.755Z,46.78
2023-02-17T01:09:26.953Z,42.25
2023-02-17T01:12:14.948Z,35.25
2023-02-17T01:14:43.812Z,44.20
2023-02-17T01:17:12.631Z,42.83
2023-02-17T01:19:41.437Z,39.17
2023-02-17T01:22:12.253Z,37.50
2023-02-17T01:24:42.771Z,35.53
2023-02-17T01:27:11.727Z,37.30
2023-02-17T01:29:40.803Z,46.50
2023-02-17T01:32:09.704Z,45.47
2023-02-17T01:34:39.630Z,38.13
2023-02-17T01:37:08.528Z,71.88
2023-02-17T01:39:38.299Z,40.60
2023-02-17T01:42:15.776Z,42.55
2023-02-17T01:45:26.216Z,39.30
2023-02-17T01:47:59.948Z,38.40
2023-02-17T01:50:34.489Z,36.13
2023-02-17T01:53:05.324Z,34.10
2023-02-17T01:55:36.285Z,34.60
2023-02-17T01:58:10.403Z,40.80
2023-02-17T02:00:40.167Z,38.30
2023-02-17T02:03:12.267Z,37.53
2023-02-17T02:05:42.792Z,35.53
2023-02-17T02:08:13.692Z,35.00
2023-02-17T02:10:42.602Z,37.80
2023-02-17T02:13:13.174Z,36.47
2023-02-17T02:15:48.668Z,48.75
2023-02-17T02:18:36.954Z,38.97
2023-02-17T02:22:02.605Z,35.80
2023-02-17T02:24:48.262Z,36.28
2023-02-17T02:27:52.388Z,35.90
2023-02-17T02:30:52.446Z,53.25
2023-02-17T02:33:35.469Z,34.03
2023-02-17T02:36:12.176Z,34.95
2023-02-17T02:38:46.017Z,36.67
2023-02-17T02:41:20.894Z,37.78
2023-02-17T02:43:50.470Z,33.70
2023-02-17T02:46:19.440Z,38.75
2023-02-17T02:48:51.415Z,34.60
2023-02-17T02:51:32.606Z,32.90
2023-02-17T02:54:32.237Z,35.08
2023-02-17T02:57:21.007Z,32.97
2023-02-17T03:00:05.880Z,31.25
2023-02-17T03:02:44.409Z,32.63
2023-02-17T03:05:19.976Z,33.35
2023-02-17T03:07:55.345Z,36.67
2023-02-17T03:10:24.421Z,37.53
2023-02-17T03:12:53.712Z,37.67
2023-02-17T03:15:27.263Z,37.97
2023-02-17T03:17:59.061Z,34.55
2023-02-17T03:20:32.733Z,41.70
2023-02-17T03:23:01.749Z,40.88
2023-02-17T03:25:30.985Z,38.58
2023-02-17T03:28:00.154Z,43.03
2023-02-17T03:30:29.057Z,37.40
2023-02-17T03:32:57.898Z,34.92
2023-02-17T03:35:26.802Z,36.17
2023-02-17T03:37:57.068Z,36.60
2023-02-17T03:40:25.851Z,38.45
2023-02-17T03:42:54.728Z,41.38
2023-02-17T03:45:23.547Z,43.92
2023-02-17T03:47:52.534Z,48.85
2023-02-17T03:50:21.495Z,39.90
2023-02-17T03:52:50.629Z,36.25
2023-02-17T03:55:20.854Z,41.80
2023-02-17T03:57:49.870Z,40.65
2023-02-17T04:00:18.920Z,37.55
2023-02-17T04:02:47.840Z,38.72
2023-02-17T04:05:16.840Z,39.58
2023-02-17T04:07:51.351Z,38.63
2023-02-17T04:10:22.913Z,39.90
2023-02-17T04:12:52.076Z,40.05
2023-02-17T04:15:21.088Z,50.50
2023-02-17T04:17:49.954Z,42.53
2023-02-17T04:20:19.042Z,36.10
2023-02-17T04:22:47.846Z,41.30
2023-02-17T04:25:16.690Z,35.38
2023-02-17T04:27:47.131Z,36.22
2023-02-17T04:30:17.006Z,34.50
2023-02-17T04:32:46.016Z,43.28
2023-02-17T04:35:14.779Z,48.13
2023-02-17T04:37:43.605Z,46.30
2023-02-17T04:40:13.710Z,65.35
2023-02-17T04:42:42.631Z,42.28
2023-02-17T04:45:14.021Z,47.45
2023-02-17T04:47:43.011Z,46.28
2023-02-17T04:50:12.839Z,44.97
2023-02-17T04:52:41.660Z,49.45
2023-02-17T04:55:10.912Z,45.05
2023-02-17T04:57:39.839Z,49.80
2023-02-17T05:00:10.222Z,45.83
2023-02-17T05:02:40.496Z,53.42
2023-02-17T05:05:10.413Z,58.53
2023-02-17T05:07:39.296Z,59.35
2023-02-17T05:10:08.860Z,56.35
2023-02-17T05:12:37.984Z,52.88
2023-02-17T05:15:08.000Z,66.35
2023-02-17T05:17:37.138Z,63.90
2023-02-17T05:20:09.233Z,56.45
2023-02-17T05:22:38.421Z,66.13
2023-02-17T05:25:07.859Z,57.05
2023-02-17T05:27:36.724Z,43.42
2023-02-17T05:30:06.535Z,49.97
2023-02-17T05:32:35.430Z,88.90
2023-02-17T05:35:04.261Z,79.93
2023-02-17T05:37:34.654Z,65.93
2023-02-17T05:40:03.836Z,68.63
2023-02-17T05:42:32.960Z,60.78
2023-02-17T05:45:01.804Z,65.70
2023-02-17T05:47:31.744Z,65.05
2023-02-17T05:50:19.157Z,67.90
2023-02-17T05:52:52.460Z,59.33
2023-02-17T05:55:22.408Z,55.55
2023-02-17T05:57:51.197Z,88.15
2023-02-17T06:00:20.146Z,71.80
2023-02-17T06:02:49.315Z,69.70
2023-02-17T06:05:18.445Z,119.00
2023-02-17T06:07:47.283Z,102.90
2023-02-17T06:10:17.686Z,74.70
2023-02-17T06:12:46.590Z,74.83
2023-02-17T06:15:15.538Z,73.23
2023-02-17T06:17:44.508Z,75.50
2023-02-17T06:20:14.235Z,112.43
2023-02-17T06:22:43.569Z,132.20
2023-02-17T06:25:12.620Z,107.63
2023-02-17T06:27:44.268Z,121.17
2023-02-17T06:30:14.964Z,63.70
2023-02-17T06:32:43.852Z,87.57
2023-02-17T06:35:12.664Z,61.73
2023-02-17T06:37:41.535Z,65.27
2023-02-17T06:40:11.895Z,55.07
2023-02-17T06:42:42.338Z,65.33
2023-02-17T06:45:11.728Z,63.97
2023-02-17T06:47:40.563Z,65.53
2023-02-17T06:50:11.945Z,52.83
2023-02-17T06:52:41.047Z,58.27
2023-02-17T06:55:10.566Z,89.33
2023-02-17T06:57:39.413Z,53.00
2023-02-17T07:00:10.907Z,82.97
2023-02-17T07:02:40.154Z,84.67
2023-02-17T07:05:09.972Z,97.73
2023-02-17T07:07:38.783Z,102.00
2023-02-17T07:10:08.969Z,52.20
2023-02-17T07:12:38.078Z,140.90
2023-02-17T07:15:12.047Z,128.60
2023-02-17T07:17:41.342Z,86.97
2023-02-17T07:20:11.623Z,106.13
2023-02-17T07:22:40.743Z,81.00
2023-02-17T07:25:09.945Z,125.33
2023-02-17T07:27:39.002Z,126.07
2023-02-17T07:30:10.776Z,88.67
2023-02-17T07:32:39.698Z,117.50
2023-02-17T07:35:08.683Z,112.97
2023-02-17T07:37:37.604Z,81.40
2023-02-17T07:40:07.838Z,69.23
2023-02-17T07:42:36.772Z,132.53
2023-02-17T07:45:07.344Z,58.50
2023-02-17T07:47:37.602Z,115.77
2023-02-17T07:50:07.623Z,80.37
2023-02-17T07:52:36.617Z,83.37
2023-02-17T07:55:05.740Z,113.40
2023-02-17T07:57:34.535Z,79.40
2023-02-17T08:00:03.767Z,107.80
2023-02-17T08:02:42.904Z,85.77
2023-02-17T08:05:11.951Z,57.20
2023-02-17T08:07:40.759Z,86.13
2023-02-17T08:10:29.991Z,62.50
2023-02-17T08:13:16.091Z,104.10
2023-02-17T08:15:45.004Z,108.60
2023-02-17T08:18:15.235Z,58.53
2023-02-17T08:20:44.087Z,63.47
2023-02-17T08:23:13.962Z,87.57
2023-02-17T08:26:02.065Z,54.73
2023-02-17T08:28:31.109Z,56.50
2023-02-17T08:31:00.103Z,118.47
2023-02-17T08:33:30.474Z,71.37
2023-02-17T08:35:59.294Z,78.37
2023-02-17T08:38:28.247Z,69.00
2023-02-17T08:40:57.048Z,67.77
2023-02-17T08:43:25.987Z,67.00
2023-02-17T08:45:55.049Z,34.57
2023-02-17T08:48:23.902Z,46.97
2023-02-17T08:50:54.401Z,82.53
2023-02-17T08:53:23.442Z,81.87
2023-02-17T08:55:52.262Z,59.63
2023-02-17T08:58:21.108Z,50.87
2023-02-17T09:00:50.461Z,41.87
2023-02-17T09:03:19.405Z,63.27
2023-02-17T09:05:49.971Z,91.30
2023-02-17T09:08:20.963Z,97.33
2023-02-17T09:10:50.001Z,156.27
2023-02-17T09:13:19.431Z,77.03
2023-02-17T09:15:49.643Z,66.03
2023-02-17T09:18:18.676Z,101.43
2023-02-17T09:20:47.459Z,58.03
2023-02-17T09:23:16.753Z,54.73
2023-02-17T09:25:47.474Z,43.50
2023-02-17T09:28:16.536Z,38.63
2023-02-17T09:30:45.553Z,36.93
2023-02-17T09:33:14.583Z,77.43
2023-02-17T09:35:44.621Z,61.07
2023-02-17T09:38:13.510Z,45.57
2023-02-17T09:40:48.715Z,41.50
2023-02-17T09:43:20.329Z,31.13
2023-02-17T09:45:53.029Z,37.07
2023-02-17T09:48:27.140Z,42.23
2023-02-17T09:51:01.718Z,34.47
2023-02-17T09:53:38.082Z,29.63
2023-02-17T09:56:15.456Z,36.93
2023-02-17T09:58:49.092Z,41.47
2023-02-17T10:01:23.252Z,25.63
2023-02-17T10:03:57.094Z,41.77
2023-02-17T10:06:30.728Z,34.03
2023-02-17T10:09:05.294Z,33.00
2023-02-17T10:11:37.730Z,47.67
2023-02-17T10:14:12.557Z,31.93
2023-02-17T10:16:48.989Z,27.67
2023-02-17T10:19:23.537Z,38.33
2023-02-17T10:22:03.969Z,26.27
2023-02-17T10:24:32.935Z,34.40
2023-02-17T10:27:29.496Z,66.53
2023-02-17T10:30:13.923Z,62.10
2023-02-17T10:32:52.931Z,27.67
2023-02-17T10:35:30.424Z,19.37
2023-02-17T10:38:07.683Z,21.57
2023-02-17T10:40:36.722Z,28.63
2023-02-17T10:43:10.605Z,22.93
2023-02-17T10:45:43.276Z,24.60
2023-02-17T10:48:16.992Z,28.37
2023-02-17T10:50:54.394Z,30.80
2023-02-17T10:53:36.738Z,61.57
2023-02-17T10:56:14.638Z,19.33
2023-02-17T10:58:55.637Z,37.17
2023-02-17T11:01:24.697Z,26.33
2023-02-17T11:04:03.105Z,19.87
2023-02-17T11:06:33.893Z,33.13
2023-02-17T11:09:07.935Z,37.63
2023-02-17T11:11:39.254Z,42.43
2023-02-17T11:14:20.709Z,28.07
2023-02-17T11:16:53.915Z,49.53
2023-02-17T11:19:25.968Z,29.97
2023-02-17T11:21:56.978Z,28.93
2023-02-17T11:24:26.424Z,26.73
2023-02-17T11:27:01.033Z,20.93
2023-02-17T11:29:32.855Z,20.57
2023-02-17T11:32:04.985Z,28.53
2023-02-17T11:34:35.159Z,27.53
2023-02-17T11:37:07.500Z,28.80
2023-02-17T11:39:41.082Z,22.20
2023-02-17T11:42:23.465Z,20.90
2023-02-17T11:44:59.319Z,30.27
2023-02-17T11:47:41.063Z,51.57
2023-02-17T11:50:41.319Z,23.93
2023-02-17T11:53:28.273Z,32.77
2023-02-17T11:56:12.417Z,33.97
2023-02-17T11:59:15.337Z,32.83
2023-02-17T12:02:07.978Z,77.23
2023-02-17T12:04:42.950Z,172.40
2023-02-17T12:07:35.858Z,95.90
2023-02-17T12:10:12.315Z,79.97
2023-02-17T12:12:57.266Z,45.53
2023-02-17T12:16:02.099Z,23.40
2023-02-17T12:18:50.193Z,28.70
2023-02-17T12:21:31.504Z,28.33
2023-02-17T12:24:23.063Z,39.80
2023-02-17T12:27:02.231Z,99.13
2023-02-17T12:29:55.966Z,32.97
2023-02-17T12:32:41.962Z,75.43
2023-02-17T12:35:20.773Z,53.40
2023-02-17T12:37:57.692Z,84.60
2023-02-17T12:40:36.226Z,46.73
2023-02-17T12:43:25.730Z,40.63
2023-02-17T12:45:58.487Z,43.03
2023-02-17T12:48:35.317Z,372.57
2023-02-17T12:51:10.784Z,76.30
2023-02-17T12:53:44.725Z,63.73
2023-02-17T12:56:39.854Z,76.17
2023-02-17T12:59:15.919Z,41.03
2023-02-17T13:01:54.314Z,40.13
2023-02-17T13:04:26.822Z,66.53
2023-02-17T13:07:06.661Z,52.47
2023-02-17T13:09:38.425Z,54.27
2023-02-17T13:12:33.849Z,48.03
2023-02-17T13:15:05.420Z,85.03
2023-02-17T13:17:38.445Z,63.40
2023-02-17T13:20:31.735Z,61.80
2023-02-17T13:23:12.036Z,53.37
2023-02-17T13:25:41.707Z,97.13
2023-02-17T13:28:36.074Z,71.13
2023-02-17T13:31:20.236Z,69.20
2023-02-17T13:33:56.187Z,61.90
2023-02-17T13:36:39.192Z,63.63
2023-02-17T13:39:34.946Z,52.87
2023-02-17T13:42:04.202Z,87.33
2023-02-17T13:44:35.609Z,58.33
2023-02-17T13:47:14.214Z,84.43
2023-02-17T13:49:43.308Z,75.17
2023-02-17T13:52:18.551Z,84.30
2023-02-17T13:54:57.568Z,64.53
2023-02-17T13:57:31.567Z,96.33
2023-02-17T14:00:09.354Z,71.43
2023-02-17T14:02:47.323Z,70.53
2023-02-17T14:05:21.640Z,62.90
2023-02-17T14:07:52.945Z,106.83
2023-02-17T14:10:26.464Z,91.00
2023-02-17T14:12:56.360Z,60.03
2023-02-17T14:15:29.652Z,51.67
2023-02-17T14:17:58.804Z,57.73
2023-02-17T14:20:30.651Z,70.77
2023-02-17T14:23:09.035Z,70.07
2023-02-17T14:25:45.119Z,38.27
2023-02-17T14:28:21.778Z,49.20
2023-02-17T14:31:14.476Z,43.50
2023-02-17T14:33:57.644Z,57.90
2023-02-17T14:36:35.519Z,47.03
2023-02-17T14:39:08.183Z,76.70
2023-02-17T14:41:38.935Z,66.83
2023-02-17T14:44:10.100Z,40.17
2023-02-17T14:46:42.528Z,48.93
2023-02-17T14:49:11.550Z,236.80
2023-02-17T14:51:41.879Z,35.20
2023-02-17T14:54:16.193Z,48.47
2023-02-17T14:56:52.949Z,138.43
2023-02-17T14:59:21.876Z,105.33
2023-02-17T15:01:50.707Z,79.10
2023-02-17T15:04:19.631Z,187.13
2023-02-17T15:06:50.923Z,187.43
2023-02-17T15:09:22.646Z,97.83
2023-02-17T15:11:54.112Z,99.23
2023-02-17T15:14:23.387Z,101.67
2023-02-17T15:16:56.750Z,97.17
2023-02-17T15:19:29.930Z,80.00
2023-02-17T15:22:01.575Z,138.23
2023-02-17T15:24:33.605Z,169.90
2023-02-17T15:27:05.492Z,176.27
2023-02-17T15:29:35.938Z,168.37
2023-02-17T15:32:12.319Z,237.07
2023-02-17T15:34:47.001Z,152.63
2023-02-17T15:37:16.228Z,159.20
2023-02-17T15:39:45.066Z,200.37
2023-02-17T15:42:16.739Z,172.67
2023-02-17T15:44:49.439Z,229.07
2023-02-17T15:47:20.764Z,204.80
2023-02-17T15:49:49.997Z,215.27
2023-02-17T15:52:18.888Z,250.93
2023-02-17T15:54:48.556Z,282.87
2023-02-17T15:57:41.249Z,245.00
2023-02-17T16:00:20.043Z,286.60
2023-02-17T16:02:49.408Z,331.30
2023-02-17T16:05:23.502Z,249.30
2023-02-17T16:07:53.344Z,280.10
2023-02-17T16:10:24.664Z,265.53
2023-02-17T16:12:58.444Z,244.57
2023-02-17T16:15:46.255Z,174.27
2023-02-17T16:18:22.627Z,143.73
2023-02-17T16:20:53.779Z,151.07
2023-02-17T16:23:22.884Z,179.33
2023-02-17T16:25:52.281Z,173.10
2023-02-17T16:28:24.374Z,200.60
2023-02-17T16:30:53.727Z,181.53
2023-02-17T16:33:22.632Z,131.77
2023-02-17T16:35:52.826Z,107.40
2023-02-17T16:38:39.992Z,112.23
2023-02-17T16:41:09.518Z,119.83
2023-02-17T16:43:40.053Z,115.30
2023-02-17T16:46:17.895Z,121.50
2023-02-17T16:48:46.900Z,96.10
2023-02-17T16:51:16.218Z,112.00
2023-02-17T16:53:45.077Z,100.93
2023-02-17T16:56:20.183Z,123.10
2023-02-17T16:58:50.721Z,149.47
2023-02-17T17:01:19.658Z,132.33
2023-02-17T17:03:48.515Z,122.80
2023-02-17T17:06:22.125Z,106.70
2023-02-17T17:08:51.397Z,99.17
2023-02-17T17:11:22.268Z,101.87
2023-02-17T17:13:53.544Z,109.90
2023-02-17T17:16:26.183Z,110.57
2023-02-17T17:18:55.710Z,112.90
2023-02-17T17:21:24.554Z,139.10
2023-02-17T17:23:53.471Z,156.03
2023-02-17T17:26:27.603Z,191.37
2023-02-17T17:28:58.252Z,168.63
2023-02-17T17:31:28.646Z,161.00
2023-02-17T17:33:57.820Z,150.27
2023-02-17T17:36:32.064Z,112.60
2023-02-17T17:39:03.531Z,111.23
2023-02-17T17:41:33.504Z,100.17
2023-02-17T17:44:04.474Z,88.57
2023-02-17T17:46:35.822Z,89.67
2023-02-17T17:49:06.648Z,88.27
2023-02-17T17:51:35.874Z,85.30
2023-02-17T17:54:06.653Z,75.17
2023-02-17T17:56:39.345Z,100.80
2023-02-17T17:59:10.222Z,72.97
2023-02-17T18:01:40.651Z,82.57
2023-02-17T18:04:10.793Z,75.70
2023-02-17T18:06:43.474Z,75.53
2023-02-17T18:09:30.588Z,82.77
2023-02-17T18:12:04.358Z,89.97
2023-02-17T18:14:39.256Z,94.30
2023-02-17T18:17:11.225Z,87.30
2023-02-17T18:19:41.347Z,86.93
2023-02-17T18:22:10.928Z,100.77
2023-02-17T18:24:43.145Z,103.73
2023-02-17T18:27:13.729Z,95.00
2023-02-17T18:29:44.675Z,83.83
2023-02-17T18:32:14.219Z,89.23
2023-02-17T18:34:43.239Z,95.37
2023-02-17T18:37:12.682Z,99.03
2023-02-17T18:39:42.336Z,102.13
2023-02-17T18:42:12.863Z,110.47
2023-02-17T18:44:43.309Z,117.47
2023-02-17T18:47:13.995Z,117.13
2023-02-17T18:49:44.590Z,85.13
2023-02-17T18:52:15.551Z,65.70
2023-02-17T18:54:45.817Z,76.27
2023-02-17T18:57:15.614Z,86.97
2023-02-17T18:59:46.185Z,83.97
2023-02-17T19:02:18.241Z,98.03
2023-02-17T19:04:47.369Z,117.03
2023-02-17T19:07:16.412Z,91.70
2023-02-17T19:09:45.249Z,79.40
2023-02-17T19:12:14.614Z,75.43
2023-02-17T19:14:44.336Z,69.27
2023-02-17T19:17:14.082Z,67.30
2023-02-17T19:19:46.114Z,89.00
2023-02-17T19:22:15.117Z,111.93
2023-02-17T19:24:44.703Z,132.63
2023-02-17T19:27:14.325Z,138.00
2023-02-17T19:29:43.272Z,150.97
2023-02-17T19:32:12.392Z,150.97
2023-02-17T19:34:43.956Z,147.33
2023-02-17T19:37:13.287Z,157.93
2023-02-17T19:39:42.958Z,176.17
2023-02-17T19:42:16.067Z,188.73
2023-02-17T19:44:45.630Z,230.63
2023-02-17T19:47:14.783Z,208.60
2023-02-17T19:49:45.399Z,195.03
2023-02-17T19:52:15.645Z,211.13
2023-02-17T19:54:45.516Z,190.43
2023-02-17T19:57:17.993Z,176.83
2023-02-17T19:59:47.580Z,182.90
2023-02-17T20:02:19.032Z,169.57
2023-02-17T20:05:08.782Z,181.87
2023-02-17T20:07:37.752Z,156.87
2023-02-17T20:10:10.922Z,139.63
2023-02-17T20:12:42.889Z,141.60
2023-02-17T20:15:12.420Z,131.90
2023-02-17T20:17:41.328Z,131.57
2023-02-17T20:20:15.127Z,127.33
2023-02-17T20:22:44.830Z,125.37
2023-02-17T20:25:13.865Z,124.47
2023-02-17T20:27:42.701Z,127.03
2023-02-17T20:30:12.694Z,116.77
2023-02-17T20:32:42.466Z,113.23
2023-02-17T20:35:16.215Z,121.53
2023-02-17T20:37:45.426Z,112.23
2023-02-17T20:40:15.012Z,109.00
2023-02-17T20:42:44.133Z,125.57
2023-02-17T20:45:13.668Z,120.73
2023-02-17T20:47:42.548Z,143.00
2023-02-17T20:50:18.665Z,151.30
2023-02-17T20:52:47.824Z,169.90
2023-02-17T20:55:18.124Z,158.60
2023-02-17T20:57:52.721Z,160.97
2023-02-17T21:00:24.822Z,153.00
2023-02-17T21:02:54.174Z,138.67
2023-02-17T21:05:27.987Z,149.33
2023-02-17T21:08:00.886Z,155.27
2023-02-17T21:10:34.875Z,152.57
2023-02-17T21:13:06.354Z,142.60
2023-02-17T21:15:36.518Z,121.73
2023-02-17T21:18:06.009Z,130.70
2023-02-17T21:20:36.499Z,130.77
2023-02-17T21:23:07.082Z,136.37
2023-02-17T21:25:37.124Z,131.70
2023-02-17T21:28:07.637Z,109.73
2023-02-17T21:30:36.876Z,113.27
2023-02-17T21:33:07.186Z,102.57
2023-02-17T21:35:39.979Z,96.20
2023-02-17T21:38:10.460Z,104.73
2023-02-17T21:40:39.977Z,97.33
2023-02-17T21:43:40.332Z,113.03
2023-02-17T21:46:11.150Z,98.63
2023-02-17T21:48:44.357Z,112.90
2023-02-17T21:51:16.365Z,98.27
2023-02-17T21:53:46.990Z,85.53
2023-02-17T21:56:16.925Z,119.50
2023-02-17T21:58:48.822Z,129.80
2023-02-17T22:01:19.300Z,107.57
2023-02-17T22:03:48.242Z,107.10
2023-02-17T22:06:20.963Z,99.45
2023-02-17T22:08:50.447Z,81.33
2023-02-17T22:11:20.627Z,90.47
2023-02-17T22:13:49.894Z,71.50
2023-02-17T22:16:19.415Z,79.03
2023-02-17T22:18:48.224Z,78.45
2023-02-17T22:21:19.843Z,136.65
2023-02-17T22:23:49.219Z,94.47
2023-02-17T22:26:19.998Z,89.72
2023-02-17T22:28:49.083Z,103.30
2023-02-17T22:31:20.555Z,95.15
2023-02-17T22:34:10.091Z,95.65
2023-02-17T22:36:40.707Z,96.20
2023-02-17T22:39:10.535Z,89.22
2023-02-17T22:41:41.309Z,94.05
2023-02-17T22:44:10.618Z,95.47
2023-02-17T22:46:39.715Z,97.35
2023-02-17T22:49:08.790Z,100.07
2023-02-17T22:51:41.667Z,112.20
2023-02-17T22:54:11.118Z,99.80
2023-02-17T22:56:42.906Z,98.55
2023-02-17T22:59:11.837Z,104.00
2023-02-17T23:01:41.051Z,98.75
2023-02-17T23:04:14.071Z,96.45
2023-02-17T23:06:45.905Z,85.25
2023-02-17T23:09:33.170Z,91.88
2023-02-17T23:12:02.099Z,96.82
2023-02-17T23:14:34.681Z,86.78
2023-02-17T23:17:06.244Z,90.03
2023-02-17T23:19:35.914Z,85.97
2023-02-17T23:22:08.452Z,84.63
2023-02-17T23:24:37.276Z,90.53
2023-02-17T23:27:06.856Z,79.78
2023-02-17T23:29:38.138Z,77.72
2023-02-17T23:32:07.913Z,73.93
2023-02-17T23:34:37.099Z,83.97
2023-02-17T23:37:07.566Z,82.47
2023-02-17T23:39:39.120Z,86.45
2023-02-17T23:42:08.284Z,84.40
2023-02-17T23:44:37.759Z,74.68
2023-02-17T23:47:08.524Z,81.32
2023-02-17T23:49:38.191Z,79.13
2023-02-17T23:52:08.732Z,96.93
2023-02-17T23:54:39.600Z,87.78
2023-02-17T23:57:10.387Z,84.75
2023-02-17T23:59:39.997Z,76.78
